Mocord, Mossoró Airport (SBMS)

NameMossoró Airport
CityMocord
CountryBrazil
ICAOSBMS
IATAMVF
Altitude23 m
CoordinatesGoogle Map
Live Air TrafficLiveATC.net
METARSBMS 301800Z 04016KT 9999 FEW030 34/20 Q1008
2019-10-30 18:00:00 Wind: North-Northeast (40°) 8.23 m/s - Visibility: > 10000 m - Temperature: 34 °C - Dew point: 20 °C - Humidity: 43.7% - Pressure: 1008 hPa
Statistics

The table below shows the detailed information of all flights to/from Mocord, Mossoró Airport (SBMS).